createdAt,value
2022-10-17T02:00:50.810Z,2.40
2022-10-17T02:01:11.445Z,2.40
2022-10-17T02:01:32.140Z,2.30
2022-10-17T02:01:52.788Z,2.30
2022-10-17T02:02:13.406Z,2.40
2022-10-17T02:02:34.200Z,2.30
2022-10-17T02:02:54.777Z,2.30
2022-10-17T02:03:15.359Z,2.60
2022-10-17T02:03:35.940Z,2.20
2022-10-17T02:03:56.571Z,2.40
2022-10-17T02:04:17.150Z,2.60
2022-10-17T02:04:37.731Z,2.50
2022-10-17T02:04:58.384Z,2.50
2022-10-17T02:05:18.938Z,2.50
2022-10-17T02:05:39.524Z,2.60
2022-10-17T02:06:00.108Z,2.50
2022-10-17T02:06:20.716Z,2.60
2022-10-17T02:06:41.091Z,2.60
2022-10-17T02:07:01.676Z,2.70
2022-10-17T02:07:22.257Z,2.60
2022-10-17T02:07:42.839Z,2.40
2022-10-17T02:08:03.423Z,2.10
2022-10-17T02:08:24.003Z,2.40
2022-10-17T02:08:44.601Z,2.30
2022-10-17T02:09:05.198Z,2.20
2022-10-17T02:09:25.770Z,2.60
2022-10-17T02:09:46.353Z,2.50
2022-10-17T02:10:06.942Z,2.60
2022-10-17T02:10:27.530Z,2.60
2022-10-17T02:10:48.113Z,2.60
2022-10-17T02:11:08.696Z,2.40
2022-10-17T02:11:29.278Z,2.40
2022-10-17T02:11:49.861Z,2.50
2022-10-17T02:12:10.443Z,2.40
2022-10-17T02:12:31.028Z,2.30
2022-10-17T02:12:51.608Z,2.40
2022-10-17T02:13:12.191Z,2.40
2022-10-17T02:13:32.792Z,2.30
2022-10-17T02:13:53.373Z,2.50
2022-10-17T02:14:13.976Z,2.50
2022-10-17T02:14:34.552Z,2.30
2022-10-17T02:14:54.945Z,2.60
2022-10-17T02:15:15.345Z,2.40
2022-10-17T02:15:37.074Z,2.40
2022-10-17T02:15:57.687Z,2.50
2022-10-17T02:16:18.248Z,2.40
2022-10-17T02:16:38.887Z,2.30
2022-10-17T02:16:59.468Z,2.40
2022-10-17T02:17:20.046Z,2.30
2022-10-17T02:17:40.633Z,2.30
2022-10-17T02:18:01.216Z,2.40
2022-10-17T02:18:21.800Z,2.40
2022-10-17T02:18:42.380Z,2.60
2022-10-17T02:19:02.974Z,2.30
2022-10-17T02:19:23.389Z,2.40
2022-10-17T02:19:43.971Z,2.50
2022-10-17T02:20:04.552Z,2.50
2022-10-17T02:20:25.137Z,2.40
2022-10-17T02:20:45.716Z,2.10
2022-10-17T02:21:06.111Z,2.20
2022-10-17T02:21:26.506Z,2.30
2022-10-17T02:21:47.094Z,2.20
2022-10-17T02:22:07.708Z,2.20
2022-10-17T02:22:28.287Z,2.40
2022-10-17T02:22:48.870Z,2.50
2022-10-17T02:23:09.576Z,2.50
2022-10-17T02:23:29.846Z,2.40
2022-10-17T02:23:50.429Z,2.50
2022-10-17T02:24:11.021Z,2.50
2022-10-17T02:24:31.629Z,2.30
2022-10-17T02:24:52.212Z,2.00
2022-10-17T02:25:12.796Z,2.40
2022-10-17T02:25:33.374Z,2.40
2022-10-17T02:25:53.955Z,2.20
2022-10-17T02:26:14.549Z,2.50
2022-10-17T02:26:35.997Z,2.20
2022-10-17T02:26:56.599Z,2.30
2022-10-17T02:27:17.174Z,2.60
2022-10-17T02:27:37.754Z,2.70
2022-10-17T02:27:58.339Z,2.30
2022-10-17T02:28:18.921Z,2.30
2022-10-17T02:28:39.342Z,2.30
2022-10-17T02:29:00.007Z,2.50
2022-10-17T02:29:20.586Z,2.20
2022-10-17T02:29:41.013Z,2.30
2022-10-17T02:30:01.590Z,2.10
2022-10-17T02:30:22.172Z,2.10
2022-10-17T02:30:42.751Z,2.10
2022-10-17T02:31:03.357Z,2.20
2022-10-17T02:31:23.942Z,2.30
2022-10-17T02:31:44.519Z,2.30
2022-10-17T02:32:05.111Z,2.30
2022-10-17T02:32:25.702Z,2.10
2022-10-17T02:32:49.375Z,2.20
2022-10-17T02:33:10.921Z,2.20
2022-10-17T02:33:31.508Z,2.30
2022-10-17T02:33:52.088Z,2.70
2022-10-17T02:34:12.701Z,2.60
2022-10-17T02:34:33.280Z,2.50
2022-10-17T02:34:53.692Z,2.40
2022-10-17T02:35:14.115Z,2.30
2022-10-17T02:35:34.704Z,2.40
2022-10-17T02:35:55.309Z,2.40
2022-10-17T02:36:15.889Z,2.40
2022-10-17T02:36:36.476Z,2.30
2022-10-17T02:36:57.061Z,2.60
2022-10-17T02:37:17.640Z,2.30
2022-10-17T02:37:38.220Z,2.40
2022-10-17T02:37:58.804Z,2.40
2022-10-17T02:38:19.388Z,2.40
2022-10-17T02:38:39.971Z,2.20
2022-10-17T02:39:00.555Z,2.30
2022-10-17T02:39:21.135Z,2.10
2022-10-17T02:39:41.733Z,2.10
2022-10-17T02:40:02.310Z,2.00
2022-10-17T02:40:22.706Z,2.20
2022-10-17T02:40:43.104Z,2.30
2022-10-17T02:41:03.692Z,2.30
2022-10-17T02:41:24.325Z,2.10
2022-10-17T02:41:44.913Z,2.30
2022-10-17T02:42:05.502Z,2.30
2022-10-17T02:42:26.364Z,2.50
2022-10-17T02:42:47.139Z,2.10
2022-10-17T02:43:07.722Z,1.90
2022-10-17T02:43:28.302Z,2.10
2022-10-17T02:43:48.881Z,2.10
2022-10-17T02:44:09.463Z,2.00
2022-10-17T02:44:30.046Z,2.20
2022-10-17T02:44:50.640Z,2.10
2022-10-17T02:45:11.041Z,2.10
2022-10-17T02:45:31.634Z,2.10
2022-10-17T02:45:52.215Z,2.20
2022-10-17T02:46:12.815Z,1.90
2022-10-17T02:46:33.375Z,2.00
2022-10-17T02:46:53.957Z,2.10
2022-10-17T02:47:14.349Z,1.90
2022-10-17T02:47:34.932Z,1.90
2022-10-17T02:47:55.511Z,2.20
2022-10-17T02:48:16.094Z,2.40
2022-10-17T02:48:36.678Z,2.10
2022-10-17T02:48:57.076Z,2.20
2022-10-17T02:49:17.689Z,2.10
2022-10-17T02:49:38.305Z,2.10
2022-10-17T02:49:58.907Z,2.20
2022-10-17T02:50:19.549Z,2.20
2022-10-17T02:50:40.154Z,2.10
2022-10-17T02:51:00.738Z,2.00
2022-10-17T02:51:21.323Z,1.90
2022-10-17T02:51:41.908Z,2.00
2022-10-17T02:52:02.490Z,2.10
2022-10-17T02:52:23.074Z,2.30
2022-10-17T02:52:43.660Z,2.10
2022-10-17T02:53:04.243Z,1.90
2022-10-17T02:53:24.825Z,1.80
2022-10-17T02:53:45.412Z,2.10
2022-10-17T02:54:06.001Z,2.00
2022-10-17T02:54:26.580Z,2.10
2022-10-17T02:54:47.163Z,1.90
2022-10-17T02:55:07.763Z,1.70
2022-10-17T02:55:28.344Z,2.00
2022-10-17T02:55:48.922Z,1.80
2022-10-17T02:56:09.510Z,1.80
2022-10-17T02:56:30.084Z,2.00
2022-10-17T02:56:50.483Z,1.80
2022-10-17T02:57:11.068Z,1.90
2022-10-17T02:57:31.647Z,1.80
2022-10-17T02:57:52.236Z,1.90
2022-10-17T02:58:12.815Z,1.80
2022-10-17T02:58:33.210Z,1.90
2022-10-17T02:58:53.795Z,2.00
2022-10-17T02:59:14.375Z,2.00
2022-10-17T02:59:55.491Z,2.30
2022-10-17T03:00:16.087Z,2.30
2022-10-17T03:00:36.688Z,2.10
2022-10-17T03:00:57.263Z,2.10
2022-10-17T03:01:17.738Z,2.10
2022-10-17T03:01:38.435Z,2.00
2022-10-17T03:01:59.029Z,1.90
2022-10-17T03:02:19.598Z,2.10
2022-10-17T03:02:40.203Z,1.90
2022-10-17T03:03:00.786Z,1.80
2022-10-17T03:03:21.486Z,1.80
2022-10-17T03:03:42.087Z,1.80
2022-10-17T03:04:02.659Z,1.80
2022-10-17T03:04:23.248Z,1.60
2022-10-17T03:04:43.828Z,1.70
2022-10-17T03:05:04.412Z,1.80
2022-10-17T03:05:25.008Z,1.90
2022-10-17T03:05:45.603Z,1.80
2022-10-17T03:06:06.174Z,1.70
2022-10-17T03:06:26.562Z,1.90
2022-10-17T03:06:47.144Z,1.80
2022-10-17T03:07:07.714Z,1.80
2022-10-17T03:07:28.300Z,2.00
2022-10-17T03:07:48.885Z,1.90
2022-10-17T03:08:09.293Z,1.80
2022-10-17T03:08:29.979Z,2.10
2022-10-17T03:08:50.527Z,1.90
2022-10-17T03:09:11.108Z,1.80
2022-10-17T03:09:31.691Z,2.20
2022-10-17T03:09:52.273Z,2.20
2022-10-17T03:10:12.853Z,1.70
2022-10-17T03:10:33.453Z,1.70
2022-10-17T03:10:54.043Z,1.90
2022-10-17T03:11:14.628Z,2.00
2022-10-17T03:11:35.204Z,2.00
2022-10-17T03:11:55.792Z,2.10
2022-10-17T03:12:16.360Z,2.20
2022-10-17T03:12:36.947Z,1.90
2022-10-17T03:12:57.541Z,1.80
2022-10-17T03:13:17.932Z,2.10
2022-10-17T03:13:39.909Z,2.00
2022-10-17T03:14:00.651Z,1.90
2022-10-17T03:14:21.065Z,2.00
2022-10-17T03:14:41.649Z,2.00
2022-10-17T03:15:02.241Z,2.10
2022-10-17T03:15:22.810Z,2.00
2022-10-17T03:15:43.406Z,1.80
2022-10-17T03:16:03.986Z,1.80
2022-10-17T03:16:24.593Z,2.00
2022-10-17T03:16:45.155Z,1.90
2022-10-17T03:17:05.748Z,1.90
2022-10-17T03:17:26.344Z,2.00
2022-10-17T03:17:46.940Z,1.90
2022-10-17T03:18:07.491Z,1.90
2022-10-17T03:18:28.102Z,2.10
2022-10-17T03:18:50.088Z,2.00
2022-10-17T03:19:10.873Z,1.90
2022-10-17T03:19:31.454Z,2.00
2022-10-17T03:19:51.853Z,1.90
2022-10-17T03:20:12.254Z,2.00
2022-10-17T03:20:32.844Z,2.10
2022-10-17T03:20:53.431Z,2.00
2022-10-17T03:21:14.007Z,1.80
2022-10-17T03:21:34.593Z,1.80
2022-10-17T03:21:55.183Z,2.10
2022-10-17T03:22:15.572Z,2.00
2022-10-17T03:22:36.155Z,1.90
2022-10-17T03:22:56.748Z,1.90
2022-10-17T03:23:17.330Z,1.70
2022-10-17T03:23:37.925Z,1.90
2022-10-17T03:23:58.506Z,2.10
2022-10-17T03:24:19.085Z,2.10
2022-10-17T03:24:39.665Z,2.10
2022-10-17T03:25:00.262Z,2.10
2022-10-17T03:25:20.845Z,2.10
2022-10-17T03:25:41.441Z,2.00
2022-10-17T03:26:02.021Z,2.20
2022-10-17T03:26:22.608Z,1.90
2022-10-17T03:26:43.255Z,2.00
2022-10-17T03:27:03.808Z,2.10
2022-10-17T03:27:24.387Z,1.80
2022-10-17T03:27:44.982Z,1.90
2022-10-17T03:28:05.563Z,1.90
2022-10-17T03:28:26.188Z,2.00
2022-10-17T03:28:48.546Z,1.90
2022-10-17T03:29:11.304Z,2.10
2022-10-17T03:29:31.654Z,2.00
2022-10-17T03:29:52.235Z,2.00
2022-10-17T03:30:12.818Z,2.00
2022-10-17T03:30:33.414Z,1.80
2022-10-17T03:30:53.997Z,1.80
2022-10-17T03:31:14.577Z,1.90
2022-10-17T03:31:35.187Z,2.00
2022-10-17T03:31:55.747Z,2.00
2022-10-17T03:32:16.330Z,1.70
2022-10-17T03:32:36.909Z,1.70
2022-10-17T03:32:57.494Z,1.70
2022-10-17T03:33:18.086Z,2.00
2022-10-17T03:33:38.660Z,1.80
2022-10-17T03:33:59.242Z,1.70
2022-10-17T03:34:19.832Z,1.80
2022-10-17T03:34:40.414Z,1.90
2022-10-17T03:35:00.997Z,1.80
2022-10-17T03:35:21.581Z,1.80
2022-10-17T03:35:42.253Z,1.80
2022-10-17T03:36:02.824Z,1.80
2022-10-17T03:36:23.405Z,2.00
2022-10-17T03:36:43.988Z,1.90
2022-10-17T03:37:04.577Z,1.90
2022-10-17T03:37:25.165Z,1.80
2022-10-17T03:37:45.749Z,1.90
2022-10-17T03:38:06.334Z,2.00
2022-10-17T03:38:26.911Z,2.10
2022-10-17T03:38:47.494Z,1.90
2022-10-17T03:39:08.077Z,1.80
2022-10-17T03:39:28.659Z,1.80
2022-10-17T03:39:49.057Z,1.90
2022-10-17T03:40:09.651Z,1.80
2022-10-17T03:40:30.226Z,1.90
2022-10-17T03:40:50.831Z,1.90
2022-10-17T03:41:11.216Z,1.90
2022-10-17T03:41:31.801Z,2.00
2022-10-17T03:41:52.384Z,1.90
2022-10-17T03:42:12.969Z,1.80
2022-10-17T03:42:33.556Z,2.00
2022-10-17T03:42:54.142Z,1.80
2022-10-17T03:43:14.727Z,1.90
2022-10-17T03:43:35.308Z,2.20
2022-10-17T03:43:55.897Z,1.90
2022-10-17T03:44:16.478Z,2.00
2022-10-17T03:44:37.063Z,2.10
2022-10-17T03:44:57.681Z,2.00
2022-10-17T03:45:18.046Z,2.00
2022-10-17T03:45:38.436Z,1.90
2022-10-17T03:45:59.045Z,2.00
2022-10-17T03:46:19.666Z,1.90
2022-10-17T03:46:40.251Z,1.90
2022-10-17T03:47:00.817Z,2.20
2022-10-17T03:47:21.396Z,2.30
2022-10-17T03:47:41.981Z,2.00
2022-10-17T03:48:02.568Z,1.80
2022-10-17T03:48:23.157Z,1.90
2022-10-17T03:48:43.735Z,1.80
2022-10-17T03:49:04.314Z,1.80
2022-10-17T03:49:24.717Z,2.20
2022-10-17T03:49:45.311Z,2.10
2022-10-17T03:50:05.872Z,1.90
2022-10-17T03:50:26.456Z,2.10
2022-10-17T03:50:47.050Z,2.00
2022-10-17T03:51:07.654Z,2.00
2022-10-17T03:51:28.223Z,2.00
2022-10-17T03:51:48.620Z,1.90
2022-10-17T03:52:09.204Z,2.10
2022-10-17T03:52:29.787Z,2.10
2022-10-17T03:52:50.379Z,2.10
2022-10-17T03:53:10.958Z,2.00
2022-10-17T03:53:31.548Z,2.10
2022-10-17T03:53:52.125Z,2.20
2022-10-17T03:54:12.715Z,2.10
2022-10-17T03:54:33.298Z,2.20
2022-10-17T03:54:53.879Z,2.10
2022-10-17T03:55:14.457Z,2.10
2022-10-17T03:55:35.042Z,2.20
2022-10-17T03:55:55.639Z,2.20
2022-10-17T03:56:16.220Z,2.10
2022-10-17T03:56:36.815Z,2.00
2022-10-17T03:57:17.957Z,2.20
2022-10-17T03:57:41.109Z,2.00
2022-10-17T03:57:58.861Z,2.10
2022-10-17T03:58:19.444Z,2.30
2022-10-17T03:58:40.024Z,2.00
2022-10-17T03:59:00.606Z,2.00
2022-10-17T03:59:21.193Z,2.10
2022-10-17T03:59:41.781Z,2.20
2022-10-17T04:00:02.360Z,2.30
2022-10-17T04:00:22.953Z,2.20
2022-10-17T04:00:43.539Z,2.30
2022-10-17T04:01:04.189Z,2.10
2022-10-17T04:01:24.869Z,2.10
2022-10-17T04:01:45.549Z,2.20
2022-10-17T04:02:06.126Z,2.20
2022-10-17T04:02:26.714Z,2.20
2022-10-17T04:02:47.291Z,2.00
2022-10-17T04:03:07.874Z,2.40
2022-10-17T04:03:28.458Z,2.10
2022-10-17T04:03:49.039Z,1.90
2022-10-17T04:04:09.620Z,2.10
2022-10-17T04:04:30.196Z,2.20
2022-10-17T04:04:50.810Z,2.30
2022-10-17T04:05:11.391Z,2.30
2022-10-17T04:05:31.971Z,2.40
2022-10-17T04:05:52.570Z,2.20
2022-10-17T04:06:12.968Z,2.30
2022-10-17T04:06:33.364Z,2.30
2022-10-17T04:06:53.947Z,2.20
2022-10-17T04:07:14.553Z,2.20
2022-10-17T04:07:35.110Z,2.30
2022-10-17T04:07:56.024Z,2.40
2022-10-17T04:08:16.978Z,2.20
2022-10-17T04:08:37.556Z,2.10
2022-10-17T04:08:58.145Z,2.10
2022-10-17T04:09:18.726Z,2.00
2022-10-17T04:09:39.310Z,2.10
2022-10-17T04:09:59.900Z,1.90
2022-10-17T04:10:20.477Z,2.10
2022-10-17T04:10:41.057Z,2.10
2022-10-17T04:11:01.655Z,2.20
2022-10-17T04:11:22.240Z,2.10
2022-10-17T04:11:42.877Z,2.20
2022-10-17T04:12:03.461Z,2.20
2022-10-17T04:12:24.046Z,2.20
2022-10-17T04:12:44.629Z,2.10
2022-10-17T04:13:05.211Z,2.10
2022-10-17T04:13:25.794Z,2.10
2022-10-17T04:13:46.375Z,1.90
2022-10-17T04:14:06.961Z,2.10
2022-10-17T04:14:27.540Z,2.10
2022-10-17T04:14:48.121Z,1.90
2022-10-17T04:15:08.705Z,2.20
2022-10-17T04:15:29.292Z,2.30
2022-10-17T04:15:49.887Z,2.20
2022-10-17T04:16:10.489Z,2.30
2022-10-17T04:16:31.073Z,2.20
2022-10-17T04:16:51.683Z,2.20
2022-10-17T04:17:12.241Z,2.20
2022-10-17T04:17:37.248Z,2.20
2022-10-17T04:17:53.287Z,2.20
2022-10-17T04:18:13.915Z,2.10
2022-10-17T04:18:34.509Z,2.20
2022-10-17T04:18:55.094Z,2.00
2022-10-17T04:19:15.678Z,2.00
2022-10-17T04:19:36.260Z,2.10
2022-10-17T04:19:56.844Z,2.00
2022-10-17T04:20:17.427Z,2.00
2022-10-17T04:20:38.007Z,2.30
2022-10-17T04:20:58.843Z,2.40
2022-10-17T04:21:19.426Z,2.30
2022-10-17T04:21:40.011Z,2.10
2022-10-17T04:22:00.408Z,2.30
2022-10-17T04:22:20.993Z,2.50
2022-10-17T04:22:41.573Z,2.30
2022-10-17T04:23:01.972Z,2.20
2022-10-17T04:23:22.558Z,2.40
2022-10-17T04:23:43.140Z,2.50
2022-10-17T04:24:03.726Z,2.30
2022-10-17T04:24:24.313Z,2.40
2022-10-17T04:24:44.908Z,2.30
2022-10-17T04:25:05.491Z,2.10
2022-10-17T04:25:25.892Z,2.10
2022-10-17T04:25:46.471Z,2.30
2022-10-17T04:26:07.068Z,2.50
2022-10-17T04:26:27.652Z,2.30
2022-10-17T04:26:48.251Z,2.50
2022-10-17T04:27:08.835Z,2.70
2022-10-17T04:27:29.425Z,2.60
2022-10-17T04:27:50.019Z,2.50
2022-10-17T04:28:10.599Z,2.50
2022-10-17T04:28:31.324Z,2.40
2022-10-17T04:28:51.950Z,2.50
2022-10-17T04:29:12.541Z,2.30
2022-10-17T04:29:33.131Z,2.30
2022-10-17T04:29:53.718Z,2.30
2022-10-17T04:30:14.327Z,2.30
2022-10-17T04:30:34.902Z,2.30
2022-10-17T04:30:55.482Z,2.10
2022-10-17T04:31:15.891Z,2.10
2022-10-17T04:31:36.473Z,2.30
2022-10-17T04:31:56.922Z,2.40
2022-10-17T04:32:17.539Z,2.50
2022-10-17T04:32:38.104Z,2.40
2022-10-17T04:32:58.677Z,2.50
2022-10-17T04:33:19.270Z,2.50
2022-10-17T04:33:39.855Z,2.60
2022-10-17T04:34:00.440Z,2.40
2022-10-17T04:34:21.025Z,2.80
2022-10-17T04:34:41.612Z,2.90
2022-10-17T04:35:02.194Z,2.80
2022-10-17T04:35:22.773Z,2.80
2022-10-17T04:35:43.353Z,2.60
2022-10-17T04:36:03.941Z,2.60
2022-10-17T04:36:24.533Z,2.70
2022-10-17T04:36:44.925Z,3.00
2022-10-17T04:37:05.509Z,2.90
2022-10-17T04:37:26.091Z,2.70
2022-10-17T04:37:46.668Z,2.60
2022-10-17T04:38:07.249Z,2.90
2022-10-17T04:38:28.695Z,2.50
2022-10-17T04:38:49.401Z,2.70
2022-10-17T04:39:10.006Z,2.90
2022-10-17T04:39:30.575Z,2.70
2022-10-17T04:39:51.159Z,2.50
2022-10-17T04:40:11.740Z,2.50
2022-10-17T04:40:32.330Z,2.80
2022-10-17T04:40:52.905Z,2.80
2022-10-17T04:41:13.505Z,2.40
2022-10-17T04:41:34.083Z,2.30
2022-10-17T04:41:54.663Z,2.30
2022-10-17T04:42:15.242Z,2.30
2022-10-17T04:42:35.829Z,2.50
2022-10-17T04:42:56.407Z,2.30
2022-10-17T04:43:16.802Z,2.40
2022-10-17T04:43:37.385Z,2.40
2022-10-17T04:43:57.968Z,2.30
2022-10-17T04:44:18.546Z,2.30
2022-10-17T04:44:39.126Z,2.00
2022-10-17T04:44:59.528Z,2.20
2022-10-17T04:45:20.106Z,2.20
2022-10-17T04:45:40.688Z,2.20
2022-10-17T04:46:01.273Z,2.50
2022-10-17T04:46:21.952Z,2.40
2022-10-17T04:46:42.542Z,2.50
2022-10-17T04:47:03.149Z,2.50
2022-10-17T04:47:23.706Z,2.60
2022-10-17T04:47:44.292Z,2.70
2022-10-17T04:48:04.874Z,2.60
2022-10-17T04:48:25.456Z,2.50
2022-10-17T04:48:46.039Z,2.50
2022-10-17T04:49:06.621Z,2.50
2022-10-17T04:49:27.282Z,2.50
2022-10-17T04:49:47.917Z,2.60
2022-10-17T04:50:08.516Z,2.30
2022-10-17T04:50:29.099Z,2.50
2022-10-17T04:50:49.678Z,2.40
2022-10-17T04:51:10.261Z,2.40
2022-10-17T04:51:30.867Z,2.40
2022-10-17T04:51:51.445Z,2.30
2022-10-17T04:52:12.034Z,2.40
2022-10-17T04:52:32.663Z,2.50
2022-10-17T04:52:53.242Z,2.60
2022-10-17T04:53:13.634Z,2.30
2022-10-17T04:53:34.213Z,2.20
2022-10-17T04:53:54.793Z,2.30
2022-10-17T04:54:15.377Z,2.20
2022-10-17T04:54:35.958Z,2.30
2022-10-17T04:54:56.544Z,2.40
2022-10-17T04:55:17.124Z,2.10
2022-10-17T04:55:37.707Z,2.10
2022-10-17T04:55:58.287Z,2.00
2022-10-17T04:56:18.885Z,2.40
2022-10-17T04:56:39.469Z,2.40
2022-10-17T04:57:00.053Z,2.10
2022-10-17T04:57:20.636Z,2.30
2022-10-17T04:57:41.030Z,2.20
2022-10-17T04:58:01.425Z,2.30
2022-10-17T04:58:22.009Z,2.40
2022-10-17T04:58:42.591Z,2.00
2022-10-17T04:59:03.177Z,2.20
2022-10-17T04:59:23.756Z,2.30
2022-10-17T04:59:44.340Z,2.20
2022-10-17T05:00:04.981Z,2.20
2022-10-17T05:00:25.582Z,2.30
2022-10-17T05:00:46.242Z,2.30
2022-10-17T05:01:06.884Z,2.20
2022-10-17T05:01:27.552Z,2.40
2022-10-17T05:01:48.129Z,2.30
2022-10-17T05:02:08.738Z,2.30
2022-10-17T05:02:29.610Z,2.30
2022-10-17T05:02:50.308Z,2.40
2022-10-17T05:03:10.891Z,2.20
2022-10-17T05:03:31.481Z,2.20
2022-10-17T05:03:52.051Z,2.30
2022-10-17T05:04:12.634Z,2.20
2022-10-17T05:04:33.219Z,2.00
2022-10-17T05:04:53.794Z,2.30
2022-10-17T05:05:14.377Z,2.20
2022-10-17T05:05:34.958Z,2.30
2022-10-17T05:05:55.541Z,2.40
2022-10-17T05:06:16.125Z,2.20
2022-10-17T05:06:36.723Z,2.10
2022-10-17T05:06:57.120Z,2.20
2022-10-17T05:07:17.706Z,2.20
2022-10-17T05:07:38.283Z,2.40
2022-10-17T05:07:58.864Z,2.30
2022-10-17T05:08:19.445Z,2.30
2022-10-17T05:08:40.033Z,2.50
2022-10-17T05:09:00.614Z,2.50
2022-10-17T05:09:21.196Z,1.90
2022-10-17T05:09:41.781Z,2.10
2022-10-17T05:10:02.363Z,2.20
2022-10-17T05:10:22.942Z,2.20
2022-10-17T05:10:43.523Z,2.10
2022-10-17T05:11:04.116Z,2.40
2022-10-17T05:11:24.694Z,2.40
2022-10-17T05:11:45.284Z,2.20
2022-10-17T05:12:08.117Z,2.30
2022-10-17T05:12:31.222Z,2.00
2022-10-17T05:12:51.962Z,2.10
2022-10-17T05:13:12.546Z,2.20
2022-10-17T05:13:33.127Z,2.10
2022-10-17T05:13:53.524Z,2.10
2022-10-17T05:14:14.107Z,2.20
2022-10-17T05:14:34.693Z,2.20
2022-10-17T05:14:55.266Z,2.40
2022-10-17T05:15:15.848Z,2.20
2022-10-17T05:15:36.441Z,2.20
2022-10-17T05:15:56.821Z,2.40
2022-10-17T05:16:17.406Z,2.30
2022-10-17T05:16:37.997Z,2.40
2022-10-17T05:16:58.584Z,2.40
2022-10-17T05:17:19.186Z,2.20
2022-10-17T05:17:39.749Z,2.10
2022-10-17T05:18:00.329Z,2.10
2022-10-17T05:18:20.915Z,2.30
2022-10-17T05:18:41.494Z,2.30
2022-10-17T05:19:02.077Z,2.30
2022-10-17T05:19:22.659Z,2.30
2022-10-17T05:19:43.242Z,2.30
2022-10-17T05:20:03.819Z,2.40
2022-10-17T05:20:24.400Z,2.40
2022-10-17T05:20:44.985Z,2.20
2022-10-17T05:21:05.567Z,2.40
2022-10-17T05:21:26.242Z,2.70
2022-10-17T05:21:46.851Z,2.40
2022-10-17T05:22:07.442Z,2.30
2022-10-17T05:22:28.284Z,2.30
2022-10-17T05:22:48.990Z,2.00
2022-10-17T05:23:09.573Z,2.30
2022-10-17T05:23:30.158Z,2.50
2022-10-17T05:23:50.742Z,2.40
2022-10-17T05:24:11.323Z,2.60
2022-10-17T05:24:31.965Z,2.20
2022-10-17T05:24:52.499Z,2.10
2022-10-17T05:25:13.079Z,2.50
2022-10-17T05:25:33.661Z,2.70
2022-10-17T05:25:54.247Z,2.40
2022-10-17T05:26:14.830Z,2.50
2022-10-17T05:26:35.412Z,2.60
2022-10-17T05:26:55.826Z,2.40
2022-10-17T05:27:16.407Z,2.40
2022-10-17T05:27:36.987Z,3.00
2022-10-17T05:27:57.571Z,2.90
2022-10-17T05:28:18.157Z,2.80
2022-10-17T05:28:38.623Z,2.90
2022-10-17T05:28:59.313Z,2.70
2022-10-17T05:29:19.558Z,2.60
2022-10-17T05:29:39.950Z,2.70
2022-10-17T05:30:00.535Z,2.90
2022-10-17T05:30:21.115Z,2.70
2022-10-17T05:30:41.701Z,2.70
2022-10-17T05:31:02.280Z,2.90
2022-10-17T05:31:22.879Z,2.70
2022-10-17T05:31:43.458Z,2.90
2022-10-17T05:32:04.059Z,2.50
2022-10-17T05:32:24.457Z,2.70
2022-10-17T05:32:45.082Z,2.70
2022-10-17T05:33:05.633Z,2.90
2022-10-17T05:33:26.200Z,2.60
2022-10-17T05:33:46.783Z,2.80
2022-10-17T05:34:09.145Z,3.20
2022-10-17T05:34:32.108Z,3.00
2022-10-17T05:34:52.691Z,3.00
2022-10-17T05:35:13.274Z,3.10
2022-10-17T05:35:33.859Z,3.00
2022-10-17T05:35:54.436Z,3.00
2022-10-17T05:36:15.019Z,3.30
2022-10-17T05:36:35.595Z,3.20
2022-10-17T05:36:56.198Z,3.50
2022-10-17T05:37:16.783Z,3.50
2022-10-17T05:37:37.363Z,3.20
2022-10-17T05:37:57.760Z,2.90
2022-10-17T05:38:18.342Z,3.30
2022-10-17T05:38:38.927Z,3.40
2022-10-17T05:38:59.512Z,3.50
2022-10-17T05:39:20.091Z,3.30
2022-10-17T05:39:40.680Z,3.40
2022-10-17T05:40:01.259Z,3.30
2022-10-17T05:40:21.845Z,3.40
2022-10-17T05:40:42.481Z,3.50
2022-10-17T05:41:03.065Z,3.40
2022-10-17T05:41:23.647Z,3.40
2022-10-17T05:41:44.249Z,3.50
2022-10-17T05:42:04.834Z,3.80
2022-10-17T05:42:25.462Z,3.60
2022-10-17T05:42:46.020Z,3.50
2022-10-17T05:43:06.607Z,3.70
2022-10-17T05:43:27.177Z,3.50
2022-10-17T05:43:47.763Z,3.60
2022-10-17T05:44:08.346Z,3.70
2022-10-17T05:44:28.928Z,4.00
2022-10-17T05:44:49.509Z,3.80
2022-10-17T05:45:10.090Z,3.20
2022-10-17T05:45:30.672Z,3.70
2022-10-17T05:45:51.069Z,3.70
2022-10-17T05:46:11.650Z,4.00
2022-10-17T05:46:32.230Z,3.60
2022-10-17T05:46:52.831Z,3.40
2022-10-17T05:47:13.414Z,3.70
2022-10-17T05:47:34.017Z,3.70
2022-10-17T05:47:54.573Z,3.60
2022-10-17T05:48:14.969Z,3.60
2022-10-17T05:48:35.550Z,3.50
2022-10-17T05:48:56.131Z,3.40
2022-10-17T05:49:32.271Z,3.50
2022-10-17T05:49:46.317Z,3.70
2022-10-17T05:49:57.528Z,3.60
2022-10-17T05:50:18.107Z,3.50
2022-10-17T05:50:38.690Z,3.50
2022-10-17T05:50:59.271Z,3.60
2022-10-17T05:51:19.859Z,3.90
2022-10-17T05:51:40.444Z,3.60
2022-10-17T05:52:00.843Z,3.80
2022-10-17T05:52:21.427Z,3.60
2022-10-17T05:52:45.056Z,3.40
2022-10-17T05:53:07.077Z,3.40
2022-10-17T05:53:27.666Z,3.50
2022-10-17T05:53:48.250Z,3.70
2022-10-17T05:54:08.835Z,3.80
2022-10-17T05:54:29.412Z,3.60
2022-10-17T05:54:49.994Z,3.60
2022-10-17T05:55:10.571Z,3.70
2022-10-17T05:55:30.969Z,3.50
2022-10-17T05:55:51.549Z,3.50
2022-10-17T05:56:12.134Z,3.50
2022-10-17T05:56:32.717Z,3.60
2022-10-17T05:56:53.316Z,3.70
2022-10-17T05:57:13.895Z,3.70
2022-10-17T05:57:34.477Z,3.50
2022-10-17T05:57:55.061Z,3.50
2022-10-17T05:58:22.214Z,3.40
2022-10-17T05:58:49.906Z,3.70
2022-10-17T05:59:00.730Z,3.30
2022-10-17T05:59:16.590Z,3.60
2022-10-17T05:59:38.517Z,3.70
2022-10-17T05:59:59.104Z,3.80
2022-10-17T06:00:19.685Z,3.70
2022-10-17T06:00:40.318Z,3.90
2022-10-17T06:01:00.871Z,4.00
2022-10-17T06:01:21.455Z,3.30
2022-10-17T06:01:42.128Z,3.30
2022-10-17T06:02:02.762Z,3.70
2022-10-17T06:02:23.444Z,3.50
2022-10-17T06:02:43.740Z,3.60
2022-10-17T06:03:04.306Z,3.60
2022-10-17T06:03:24.886Z,3.30
2022-10-17T06:03:45.475Z,3.40
2022-10-17T06:04:06.049Z,3.50
2022-10-17T06:04:26.448Z,3.70
2022-10-17T06:04:47.026Z,3.40
2022-10-17T06:05:07.614Z,3.50
2022-10-17T06:05:28.198Z,3.60
2022-10-17T06:05:48.787Z,3.70
2022-10-17T06:06:09.366Z,3.90
2022-10-17T06:06:29.761Z,3.60
2022-10-17T06:06:50.342Z,3.30
2022-10-17T06:07:10.945Z,3.50
2022-10-17T06:07:31.533Z,3.60
2022-10-17T06:07:52.115Z,3.90
2022-10-17T06:08:12.699Z,3.70
2022-10-17T06:08:33.279Z,3.20
2022-10-17T06:08:53.864Z,3.30
2022-10-17T06:09:14.442Z,3.70
2022-10-17T06:09:35.084Z,3.30
2022-10-17T06:09:55.684Z,3.80
2022-10-17T06:10:16.323Z,3.70
2022-10-17T06:10:36.890Z,3.20
2022-10-17T06:10:57.466Z,3.50
2022-10-17T06:11:18.050Z,3.50
2022-10-17T06:11:38.649Z,3.60
2022-10-17T06:11:59.243Z,4.00
2022-10-17T06:12:19.835Z,3.60
2022-10-17T06:12:40.419Z,3.40
2022-10-17T06:13:00.821Z,3.30
2022-10-17T06:13:21.399Z,3.40
2022-10-17T06:13:41.981Z,3.30
2022-10-17T06:14:02.562Z,3.20
2022-10-17T06:14:22.969Z,3.40
2022-10-17T06:14:43.549Z,3.50
2022-10-17T06:15:04.131Z,3.70
2022-10-17T06:15:24.715Z,3.50
2022-10-17T06:15:45.300Z,3.50
2022-10-17T06:16:05.878Z,3.50
2022-10-17T06:16:26.460Z,3.50
2022-10-17T06:16:47.041Z,3.20
2022-10-17T06:17:10.924Z,3.60
2022-10-17T06:17:28.043Z,3.60
2022-10-17T06:17:48.642Z,3.50
2022-10-17T06:18:09.209Z,3.70
2022-10-17T06:18:29.598Z,3.70
2022-10-17T06:18:50.186Z,3.60
2022-10-17T06:19:10.772Z,3.60
2022-10-17T06:19:31.167Z,3.70
2022-10-17T06:19:51.748Z,3.50
2022-10-17T06:20:12.328Z,3.50
2022-10-17T06:20:32.914Z,3.70
2022-10-17T06:20:53.494Z,3.50
2022-10-17T06:21:14.074Z,3.50
2022-10-17T06:21:34.471Z,3.60
2022-10-17T06:21:55.057Z,3.60
2022-10-17T06:22:15.648Z,3.30
2022-10-17T06:22:36.042Z,3.70
2022-10-17T06:22:56.624Z,3.60
2022-10-17T06:23:17.210Z,3.50
2022-10-17T06:23:37.792Z,3.20
2022-10-17T06:23:58.376Z,3.30
2022-10-17T06:24:18.959Z,3.50
2022-10-17T06:24:39.546Z,3.20
2022-10-17T06:25:00.124Z,3.40
2022-10-17T06:25:20.708Z,3.30
2022-10-17T06:25:41.289Z,3.30
2022-10-17T06:26:01.869Z,3.30
2022-10-17T06:26:22.453Z,3.70
2022-10-17T06:26:43.031Z,3.20
2022-10-17T06:27:05.844Z,3.30
2022-10-17T06:27:24.015Z,3.60
2022-10-17T06:27:44.625Z,3.60
2022-10-17T06:28:05.179Z,3.50
2022-10-17T06:28:25.790Z,3.50
2022-10-17T06:28:46.435Z,3.20
2022-10-17T06:29:07.076Z,3.40
2022-10-17T06:29:27.618Z,3.60
2022-10-17T06:29:48.203Z,3.40
2022-10-17T06:30:08.794Z,3.70
2022-10-17T06:30:29.375Z,3.40
2022-10-17T06:30:49.952Z,2.90
2022-10-17T06:31:10.343Z,3.40
2022-10-17T06:31:30.927Z,3.20
2022-10-17T06:31:51.507Z,3.30
2022-10-17T06:32:14.965Z,3.30
2022-10-17T06:32:32.702Z,3.30
2022-10-17T06:32:53.354Z,3.20
2022-10-17T06:33:13.910Z,3.20
2022-10-17T06:33:34.502Z,3.30
2022-10-17T06:33:55.101Z,3.20
2022-10-17T06:34:15.709Z,3.30
2022-10-17T06:34:36.288Z,3.10
2022-10-17T06:34:56.870Z,3.10
2022-10-17T06:35:17.454Z,3.10
2022-10-17T06:35:38.042Z,3.50